S/y Yam — ZNF17 — position and weather

sailwx.info

Track history (hours):
 
Tides and Currents Weather Stations Pressure Air Temp Water Temp Dewpoint Dewpoint Depression Visibility Wind Speed Wind Dir Waves Ship Positions

S/y Yam

Last reported at 2017-Sep-09 14:13 UTC. Time now 2017-Sep-21 03:37 UTC.
Position N 44°15' E 009°24'.
Warning: this ship's position is 11 days out of date.

Length 30 m.

Type: Sailing vessel. MMSI: 232004103.

Date/timePositionNaut miles runAvg speedWind from/ knotsBaromVisibWave heightAir tempDewpointWater temp
2017-Sep-09 14:13N 44°15' E 009°24'2 9.8
2017-Sep-09 14:00N 44°13' E 009°25'5 9.7
2017-Sep-09 13:30N 44°09' E 009°29'4 7.3
2017-Sep-09 13:00N 44°06' E 009°30'5 9.3
2017-Sep-09 12:30N 44°02' E 009°34'5 9.5
2017-Sep-09 12:00N 43°58' E 009°38'510.1
2017-Sep-09 11:30N 43°53' E 009°41'510.8
2017-Sep-09 11:00N 43°49' E 009°44'611.0
2017-Sep-09 10:30N 43°44' E 009°48'611.3
2017-Sep-09 10:01N 43°39' E 009°52'611.7
2017-Sep-09 09:30N 43°34' E 009°55'611.5
2017-Sep-09 09:00N 43°28' E 009°59'611.6
2017-Sep-09 08:30N 43°23' E 010°03'611.7
2017-Sep-09 08:00N 43°19' E 010°08'  
2017-Sep-06 00:28N 37°54' E 023°05'910.1
2017-Sep-05 23:34N 37°52' E 023°16'110.7
2017-Sep-05 23:26N 37°51' E 023°18'510.9
2017-Sep-05 23:00N 37°50' E 023°24'510.0
2017-Sep-05 22:30N 37°49' E 023°30'510.4
2017-Sep-05 22:00N 37°47' E 023°36'510.4
2017-Sep-05 21:30N 37°44' E 023°42'510.3
2017-Sep-05 21:00N 37°42' E 023°47'610.1
2017-Sep-05 20:27N 37°39' E 023°54'4310.4
2017-Sep-05 16:20N 37°24' E 024°44'410.3
2017-Sep-05 16:00N 37°23' E 024°48'4 7.9
2017-Sep-05 15:30N 37°21' E 024°53'510.0
2017-Sep-05 15:00N 37°21' E 024°59'7 9.7
2017-Sep-05 14:16N 37°21' E 025°08'2 9.7
2017-Sep-05 14:00N 37°22' E 025°11'5 9.6
2017-Sep-05 13:30N 37°22' E 025°17'3 6.0
2017-Sep-05 13:00N 37°25' E 025°19'4 8.4
2017-Sep-05 12:30N 37°22' E 025°16'3 5.0
2017-Sep-05 11:57N 37°24' E 025°13'0 0.1
2017-Sep-05 11:30N 37°24' E 025°13'0 0.0
2017-Sep-05 10:54N 37°24' E 025°13'0 0.0
2017-Sep-05 10:27N 37°24' E 025°13'0 0.0
2017-Sep-05 09:54N 37°24' E 025°13'0 0.5
2017-Sep-05 09:30N 37°24' E 025°13'3 6.0
2017-Sep-05 09:00N 37°22' E 025°17'3 6.3
2017-Sep-05 08:28N 37°25' E 025°19'0 0.0
2017-Sep-05 07:58N 37°25' E 025°19'0 0.0
2017-Sep-05 07:28N 37°25' E 025°19'0 0.0
2017-Sep-05 07:01N 37°25' E 025°19'0 0.0
2017-Sep-05 06:28N 37°25' E 025°19'0 0.0
2017-Sep-05 05:58N 37°25' E 025°19'0 0.0
2017-Sep-05 05:31N 37°25' E 025°19'0 0.0
2017-Sep-05 05:01N 37°25' E 025°19'0 0.0
2017-Sep-05 04:28N 37°25' E 025°19'0 0.0
2017-Sep-05 04:01N 37°25' E 025°19'0 0.0
2017-Sep-05 03:31N 37°25' E 025°19'0 0.0
2017-Sep-05 02:58N 37°25' E 025°19'0 0.0
2017-Sep-05 02:28N 37°25' E 025°19'0 0.0
2017-Sep-05 02:01N 37°25' E 025°19'0 0.0
2017-Sep-05 01:28N 37°25' E 025°19'0 0.0
2017-Sep-05 01:01N 37°25' E 025°19'0 0.0
2017-Sep-05 00:28N 37°25' E 025°19'0 0.0
2017-Sep-04 23:55N 37°25' E 025°19'0 0.0
2017-Sep-04 23:28N 37°25' E 025°19'0 0.0
2017-Sep-04 23:01N 37°25' E 025°19'0 0.0
2017-Sep-04 22:28N 37°25' E 025°19'0 0.0
2017-Sep-04 22:01N 37°25' E 025°19'0 0.0
2017-Sep-04 21:28N 37°25' E 025°19'0 0.0
2017-Sep-04 20:58N 37°25' E 025°19'0 0.0
2017-Sep-04 20:28N 37°25' E 025°19'0 0.0
2017-Sep-04 20:01N 37°25' E 025°19'0 0.0
2017-Sep-04 19:31N 37°25' E 025°19'0 0.0
2017-Sep-04 18:58N 37°25' E 025°19'0 0.0
2017-Sep-04 18:31N 37°25' E 025°19'0 0.0
2017-Sep-04 17:58N 37°25' E 025°19'0 0.0
2017-Sep-04 17:28N 37°25' E 025°19'0 0.0
2017-Sep-04 16:58N 37°25' E 025°19'0 0.0
2017-Sep-04 16:31N 37°25' E 025°19'0 0.0
2017-Sep-04 16:01N 37°25' E 025°19'0 0.0
2017-Sep-04 15:28N 37°25' E 025°19'0 0.0
2017-Sep-04 15:01N 37°25' E 025°19'0 0.0
2017-Sep-04 14:31N 37°25' E 025°19'0 0.0
2017-Sep-04 14:01N 37°25' E 025°19'0 0.0
2017-Sep-04 13:28N 37°25' E 025°19'2 3.4
2017-Sep-04 13:01N 37°23' E 025°18'4 8.2
2017-Sep-04 12:30N 37°22' E 025°14'2 4.1
2017-Sep-04 11:59N 37°24' E 025°13'0 0.0
2017-Sep-04 11:29N 37°24' E 025°13'0 0.0
2017-Sep-04 10:59N 37°24' E 025°13'0 0.0
2017-Sep-04 10:29N 37°24' E 025°13'0 0.0
2017-Sep-04 09:59N 37°24' E 025°13'0 0.0
2017-Sep-04 09:26N 37°24' E 025°13'0 0.0
2017-Sep-04 08:59N 37°24' E 025°13'0 0.0
2017-Sep-04 08:30N 37°24' E 025°13'3 5.2
2017-Sep-04 08:00N 37°22' E 025°15'4 8.6
2017-Sep-04 07:30N 37°25' E 025°19'0 0.1
2017-Sep-04 07:00N 37°25' E 025°19'0 0.0
2017-Sep-04 06:30N 37°25' E 025°19'0 0.0
2017-Sep-04 06:00N 37°25' E 025°19'0 0.0
2017-Sep-04 05:30N 37°25' E 025°19'0 0.0
2017-Sep-04 05:00N 37°25' E 025°19'0 0.0
2017-Sep-04 04:30N 37°25' E 025°19'0 0.1
2017-Sep-04 03:57N 37°25' E 025°19'0 0.0
2017-Sep-04 03:30N 37°25' E 025°19'0 0.0
2017-Sep-04 03:00N 37°25' E 025°19'0 0.0
2017-Sep-04 02:30N 37°25' E 025°19'0 0.0
2017-Sep-04 02:00N 37°25' E 025°19'0 0.0
2017-Sep-04 01:30N 37°25' E 025°19'0 0.0
2017-Sep-04 01:00N 37°25' E 025°19'0 0.0
2017-Sep-04 00:30N 37°25' E 025°19'0 0.0
2017-Sep-03 23:57N 37°25' E 025°19'0 0.0
2017-Sep-03 23:27N 37°25' E 025°19'0 0.0
2017-Sep-03 23:00N 37°25' E 025°19'0 0.0
2017-Sep-03 22:30N 37°25' E 025°19'0 0.0
2017-Sep-03 22:00N 37°25' E 025°19'0 0.0
2017-Sep-03 21:30N 37°25' E 025°19'0 0.0
2017-Sep-03 20:57N 37°25' E 025°19'0 0.0
2017-Sep-03 20:30N 37°25' E 025°19'0 0.0
2017-Sep-03 20:00N 37°25' E 025°19'0 0.0
2017-Sep-03 19:30N 37°25' E 025°19'0 0.0
2017-Sep-03 19:00N 37°25' E 025°19'0 0.0
2017-Sep-03 18:30N 37°25' E 025°19'0 0.0
2017-Sep-03 18:00N 37°25' E 025°19'0 0.0
2017-Sep-03 17:30N 37°25' E 025°19'0 0.0
2017-Sep-03 17:00N 37°25' E 025°19'0 0.0
2017-Sep-03 16:30N 37°25' E 025°19'0 0.0
2017-Sep-03 16:00N 37°25' E 025°19'0 0.0
2017-Sep-03 15:30N 37°25' E 025°19'0 0.0
2017-Sep-03 15:00N 37°25' E 025°19'0 0.0
2017-Sep-03 14:00N 37°25' E 025°19'0 0.0
2017-Sep-03 13:30N 37°25' E 025°19'2 3.9
2017-Sep-03 13:00N 37°23' E 025°18'4 8.7
2017-Sep-03 12:30N 37°22' E 025°13'2 0.5
2017-Sep-03 08:37N 37°24' E 025°13'1 4.7
2017-Sep-03 08:28N 37°23' E 025°13'3 5.6
2017-Sep-03 08:00N 37°22' E 025°16'4 7.5
2017-Sep-03 07:30N 37°25' E 025°19'0 0.3
2017-Sep-03 06:58N 37°25' E 025°19'0 0.0
2017-Sep-03 06:28N 37°25' E 025°19'0 0.0
2017-Sep-03 05:58N 37°25' E 025°19'0 0.0
2017-Sep-03 05:28N 37°25' E 025°19'0 0.0
2017-Sep-03 04:55N 37°25' E 025°19'0 0.0
2017-Sep-03 04:28N 37°25' E 025°19'0 0.0
2017-Sep-03 03:58N 37°25' E 025°19'0 0.0
2017-Sep-03 03:28N 37°25' E 025°19'0 0.0
2017-Sep-03 02:58N 37°25' E 025°19'0 0.0
2017-Sep-03 02:28N 37°25' E 025°19'0 0.0
2017-Sep-03 01:58N 37°25' E 025°19'0 0.0
2017-Sep-03 01:28N 37°25' E 025°19'0 0.0
2017-Sep-03 00:37N 37°25' E 025°19'0 0.0
2017-Sep-03 00:28N 37°25' E 025°19'0 0.0
2017-Sep-02 23:58N 37°25' E 025°19'0 0.0
2017-Sep-02 23:28N 37°25' E 025°19'0 0.0
2017-Sep-02 22:49N 37°25' E 025°19'0 0.0
2017-Sep-02 22:28N 37°25' E 025°19'0 0.0
2017-Sep-02 21:58N 37°25' E 025°19'0 0.0
2017-Sep-02 21:28N 37°25' E 025°19'0 0.0
2017-Sep-02 20:58N 37°25' E 025°19'0 0.0
2017-Sep-02 20:28N 37°25' E 025°19'0 0.0
2017-Sep-02 19:58N 37°25' E 025°19'0 0.0
2017-Sep-02 19:28N 37°25' E 025°19'0 0.0
2017-Sep-02 18:58N 37°25' E 025°19'0 0.0
2017-Sep-02 18:28N 37°25' E 025°19'0 0.0
2017-Sep-02 17:58N 37°25' E 025°19'0 0.0
2017-Sep-02 17:28N 37°25' E 025°19'0 0.0
2017-Sep-02 16:58N 37°25' E 025°19'0 0.0
2017-Sep-02 16:22N 37°25' E 025°19'0 0.0
2017-Sep-02 15:58N 37°25' E 025°19'0 0.0
2017-Sep-02 15:28N 37°25' E 025°19'0 0.0
2017-Sep-02 14:58N 37°25' E 025°19'0 0.0
2017-Sep-02 14:28N 37°25' E 025°19'0 0.0
2017-Sep-02 13:58N 37°25' E 025°19'0 0.0
2017-Sep-02 13:28N 37°25' E 025°19'0 0.0
2017-Sep-02 12:58N 37°25' E 025°19'0 0.0
2017-Sep-02 12:28N 37°25' E 025°19'3 7.0
2017-Sep-02 12:00N 37°22' E 025°17'2 3.8
2017-Sep-02 11:28N 37°23' E 025°14'0 0.0
2017-Sep-02 10:58N 37°23' E 025°14'0 0.0
2017-Sep-02 10:28N 37°23' E 025°14'0 0.0
2017-Sep-02 09:58N 37°23' E 025°14'0 0.1
2017-Sep-02 09:28N 37°23' E 025°14'0 0.1
2017-Sep-02 08:58N 37°23' E 025°14'0 0.0
2017-Sep-02 08:28N 37°23' E 025°14'0 0.5
2017-Sep-02 08:00N 37°23' E 025°14'4 7.1
2017-Sep-02 07:30N 37°24' E 025°19'1 2.4
2017-Sep-02 06:58N 37°25' E 025°19'0 0.0
2017-Sep-02 06:28N 37°25' E 025°19'0 0.0
2017-Sep-02 05:58N 37°25' E 025°19'0 0.0
2017-Sep-02 05:28N 37°25' E 025°19'0 0.0
2017-Sep-02 04:58N 37°25' E 025°19'0 0.0
2017-Sep-02 04:28N 37°25' E 025°19'0 0.0
2017-Sep-02 03:58N 37°25' E 025°19'0 0.0
2017-Sep-02 03:28N 37°25' E 025°19'0 0.0
2017-Sep-02 02:58N 37°25' E 025°19'0 0.0
2017-Sep-02 02:28N 37°25' E 025°19'0 0.0
2017-Sep-02 01:58N 37°25' E 025°19'0 0.0
2017-Sep-02 01:25N 37°25' E 025°19'0 0.0
2017-Sep-02 00:58N 37°25' E 025°19'0 0.0
2017-Sep-02 00:28N 37°25' E 025°19'0 0.0
2017-Sep-01 23:58N 37°25' E 025°19'0 0.0
2017-Sep-01 23:28N 37°25' E 025°19'0 0.0
2017-Sep-01 22:55N 37°25' E 025°19'0 0.0
2017-Sep-01 22:28N 37°25' E 025°19'0 0.0
2017-Sep-01 21:58N 37°25' E 025°19'0 0.0
2017-Sep-01 21:28N 37°25' E 025°19'0 0.0
2017-Sep-01 20:58N 37°25' E 025°19'0 0.0
2017-Sep-01 20:25N 37°25' E 025°19'0 0.0
2017-Sep-01 19:58N 37°25' E 025°19'0 0.0
2017-Sep-01 19:28N 37°25' E 025°19'0 0.0
2017-Sep-01 18:55N 37°25' E 025°19'0 0.0
2017-Sep-01 18:28N 37°25' E 025°19'0 0.0
2017-Sep-01 17:58N 37°25' E 025°19'0 0.0
2017-Sep-01 17:28N 37°25' E 025°19'0 0.0
2017-Sep-01 16:58N 37°25' E 025°19'0 0.0
2017-Sep-01 16:28N 37°25' E 025°19'0 0.0
2017-Sep-01 15:58N 37°25' E 025°19'0 0.0
2017-Sep-01 15:28N 37°25' E 025°19'0 0.0
2017-Sep-01 14:55N 37°25' E 025°19'0 0.0
2017-Sep-01 14:28N 37°25' E 025°19'0 0.0
2017-Sep-01 13:58N 37°25' E 025°19'0 0.0
2017-Sep-01 13:28N 37°25' E 025°19'0 0.0
2017-Sep-01 12:58N 37°25' E 025°19'0 0.0
2017-Sep-01 12:25N 37°25' E 025°19'0 0.0
2017-Sep-01 11:58N 37°25' E 025°19'0 0.0
2017-Sep-01 11:28N 37°25' E 025°19'0 0.0
2017-Sep-01 10:55N 37°25' E 025°19'0 0.0
2017-Sep-01 10:28N 37°25' E 025°19'0 0.0
2017-Sep-01 09:58N 37°25' E 025°19'0 0.0
2017-Sep-01 09:28N 37°25' E 025°19'0 0.0
2017-Sep-01 08:58N 37°25' E 025°19'0 0.0
2017-Sep-01 08:25N 37°25' E 025°19'0 0.0
2017-Sep-01 07:58N 37°25' E 025°19'0 0.0
2017-Sep-01 07:22N 37°25' E 025°19'0 0.0
2017-Sep-01 06:58N 37°25' E 025°19'0 0.0
2017-Sep-01 06:28N 37°25' E 025°19'0 0.0
2017-Sep-01 05:58N 37°25' E 025°19'0 0.0
2017-Sep-01 05:28N 37°25' E 025°19'0 0.0
2017-Sep-01 04:58N 37°25' E 025°19'0 0.0
2017-Sep-01 04:28N 37°25' E 025°19'0 0.0
2017-Sep-01 03:58N 37°25' E 025°19'0 0.0
2017-Sep-01 03:28N 37°25' E 025°19'0 0.0
2017-Sep-01 02:55N 37°25' E 025°19'0 0.0
2017-Sep-01 02:25N 37°25' E 025°19'0 0.0
2017-Sep-01 01:58N 37°25' E 025°19'0 0.0
2017-Sep-01 01:28N 37°25' E 025°19'0 0.0
2017-Sep-01 00:58N 37°25' E 025°19'0 0.0
2017-Sep-01 00:28N 37°25' E 025°19'0 0.0
2017-Aug-31 23:58N 37°25' E 025°19'0 0.0
2017-Aug-31 23:28N 37°25' E 025°19'0 0.0
2017-Aug-31 22:55N 37°25' E 025°19'0 0.0
2017-Aug-31 22:28N 37°25' E 025°19'0 0.0
2017-Aug-31 21:58N 37°25' E 025°19'0 0.0
2017-Aug-31 21:28N 37°25' E 025°19'0 0.0
2017-Aug-31 20:58N 37°25' E 025°19'0 0.0
2017-Aug-31 20:28N 37°25' E 025°19'0 0.0
2017-Aug-31 19:58N 37°25' E 025°19'0 0.0
2017-Aug-31 19:28N 37°25' E 025°19'0 0.0
2017-Aug-31 18:58N 37°25' E 025°19'0 0.0
2017-Aug-31 18:28N 37°25' E 025°19'0 0.0
2017-Aug-31 17:58N 37°25' E 025°19'0 0.0
2017-Aug-31 17:28N 37°25' E 025°19'0 0.0
2017-Aug-31 16:55N 37°25' E 025°19'0 0.0
2017-Aug-31 16:25N 37°25' E 025°19'0 0.0
2017-Aug-31 15:58N 37°25' E 025°19'0 0.0
2017-Aug-31 15:28N 37°25' E 025°19'0 0.0
2017-Aug-31 14:55N 37°25' E 025°19'0 0.0
2017-Aug-31 14:28N 37°25' E 025°19'0 0.0
2017-Aug-31 13:58N 37°25' E 025°19'0 0.0
2017-Aug-31 13:25N 37°25' E 025°19'0 0.0
2017-Aug-31 12:58N 37°25' E 025°19'0 0.0
2017-Aug-31 12:25N 37°25' E 025°19'0 0.2
2017-Aug-31 11:59N 37°25' E 025°19'0 0.1
2017-Aug-31 11:29N 37°25' E 025°19'0 0.0
2017-Aug-31 10:59N 37°25' E 025°19'0 0.0
2017-Aug-31 10:29N 37°25' E 025°19'0 0.0
2017-Aug-31 09:59N 37°25' E 025°19'0 0.1
2017-Aug-31 09:31N 37°25' E 025°19'3 6.7
2017-Aug-31 09:01N 37°22' E 025°17'3 6.3
2017-Aug-31 08:31N 37°23' E 025°13'1 2.5
2017-Aug-31 08:00N 37°24' E 025°13'0 0.0
2017-Aug-31 07:27N 37°24' E 025°13'0 0.0
2017-Aug-31 07:00N 37°24' E 025°13'0 0.0
2017-Aug-31 06:24N 37°24' E 025°13'0 0.0
2017-Aug-31 06:00N 37°24' E 025°13'0 0.0
2017-Aug-31 05:27N 37°24' E 025°13'0 0.0
2017-Aug-31 04:57N 37°24' E 025°13'0 0.0
2017-Aug-31 04:30N 37°24' E 025°13'0 0.0
2017-Aug-31 04:00N 37°24' E 025°13'0 0.0
2017-Aug-31 03:30N 37°24' E 025°13'0 0.0
2017-Aug-31 03:00N 37°24' E 025°13'0 0.0
2017-Aug-31 02:30N 37°24' E 025°13'0 0.0
2017-Aug-31 02:00N 37°24' E 025°13'0 0.0
2017-Aug-31 01:30N 37°24' E 025°13'0 0.0
2017-Aug-31 01:00N 37°24' E 025°13'0 0.0
2017-Aug-31 00:30N 37°24' E 025°13'0 0.0
2017-Aug-31 00:00N 37°24' E 025°13'0 0.0
2017-Aug-30 23:30N 37°24' E 025°13'0 0.0
2017-Aug-30 23:00N 37°24' E 025°13'0 0.0
2017-Aug-30 22:27N 37°24' E 025°13'0 0.0
2017-Aug-30 22:00N 37°24' E 025°13'0 0.0
2017-Aug-30 21:30N 37°24' E 025°13'0 0.0
2017-Aug-30 21:00N 37°24' E 025°13'0 0.0
2017-Aug-30 20:30N 37°24' E 025°13'0 0.0
2017-Aug-30 20:00N 37°24' E 025°13'0 0.0
2017-Aug-30 19:27N 37°24' E 025°13'0 0.0
2017-Aug-30 19:00N 37°24' E 025°13'0 0.0
2017-Aug-30 18:30N 37°24' E 025°13'0 0.0
2017-Aug-30 18:00N 37°24' E 025°13'0 0.0
2017-Aug-30 17:30N 37°24' E 025°13'0 0.0
2017-Aug-30 17:00N 37°24' E 025°13'0 0.0
2017-Aug-30 16:27N 37°24' E 025°13'0 0.0
2017-Aug-30 15:57N 37°24' E 025°13'0 0.0
2017-Aug-30 15:30N 37°24' E 025°13'0 0.0
2017-Aug-30 15:00N 37°24' E 025°13'0 0.0
2017-Aug-30 14:30N 37°24' E 025°13'  
Track history (hours):
 
Tides and Currents Weather Stations Pressure Air Temp Water Temp Dewpoint Dewpoint Depression Visibility Wind Speed Wind Dir Waves Ship Positions

S/y Yam

Last reported at 2017-Sep-09 14:13 UTC. Time now 2017-Sep-21 03:37 UTC.
Position N 44°15' E 009°24'.
Warning: this ship's position is 11 days out of date.

Length 30 m.

Type: Sailing vessel. MMSI: 232004103.

Date/timePositionNaut miles runAvg speedWind from/ knotsBaromVisibWave heightAir tempDewpointWater temp
2017-Sep-09 14:13N 44°15' E 009°24'2 9.8
2017-Sep-09 14:00N 44°13' E 009°25'5 9.7
2017-Sep-09 13:30N 44°09' E 009°29'4 7.3
2017-Sep-09 13:00N 44°06' E 009°30'5 9.3
2017-Sep-09 12:30N 44°02' E 009°34'5 9.5
2017-Sep-09 12:00N 43°58' E 009°38'510.1
2017-Sep-09 11:30N 43°53' E 009°41'510.8
2017-Sep-09 11:00N 43°49' E 009°44'611.0
2017-Sep-09 10:30N 43°44' E 009°48'611.3
2017-Sep-09 10:01N 43°39' E 009°52'611.7
2017-Sep-09 09:30N 43°34' E 009°55'611.5
2017-Sep-09 09:00N 43°28' E 009°59'611.6
2017-Sep-09 08:30N 43°23' E 010°03'611.7
2017-Sep-09 08:00N 43°19' E 010°08'  
2017-Sep-06 00:28N 37°54' E 023°05'910.1
2017-Sep-05 23:34N 37°52' E 023°16'110.7
2017-Sep-05 23:26N 37°51' E 023°18'510.9
2017-Sep-05 23:00N 37°50' E 023°24'510.0
2017-Sep-05 22:30N 37°49' E 023°30'510.4
2017-Sep-05 22:00N 37°47' E 023°36'510.4
2017-Sep-05 21:30N 37°44' E 023°42'510.3
2017-Sep-05 21:00N 37°42' E 023°47'610.1
2017-Sep-05 20:27N 37°39' E 023°54'4310.4
2017-Sep-05 16:20N 37°24' E 024°44'410.3
2017-Sep-05 16:00N 37°23' E 024°48'4 7.9
2017-Sep-05 15:30N 37°21' E 024°53'510.0
2017-Sep-05 15:00N 37°21' E 024°59'7 9.7
2017-Sep-05 14:16N 37°21' E 025°08'2 9.7
2017-Sep-05 14:00N 37°22' E 025°11'5 9.6
2017-Sep-05 13:30N 37°22' E 025°17'3 6.0
2017-Sep-05 13:00N 37°25' E 025°19'4 8.4
2017-Sep-05 12:30N 37°22' E 025°16'3 5.0
2017-Sep-05 11:57N 37°24' E 025°13'0 0.1
2017-Sep-05 11:30N 37°24' E 025°13'0 0.0
2017-Sep-05 10:54N 37°24' E 025°13'0 0.0
2017-Sep-05 10:27N 37°24' E 025°13'0 0.0
2017-Sep-05 09:54N 37°24' E 025°13'0 0.5
2017-Sep-05 09:30N 37°24' E 025°13'3 6.0
2017-Sep-05 09:00N 37°22' E 025°17'3 6.3
2017-Sep-05 08:28N 37°25' E 025°19'0 0.0
2017-Sep-05 07:58N 37°25' E 025°19'0 0.0
2017-Sep-05 07:28N 37°25' E 025°19'0 0.0
2017-Sep-05 07:01N 37°25' E 025°19'0 0.0
2017-Sep-05 06:28N 37°25' E 025°19'0 0.0
2017-Sep-05 05:58N 37°25' E 025°19'0 0.0
2017-Sep-05 05:31N 37°25' E 025°19'0 0.0
2017-Sep-05 05:01N 37°25' E 025°19'0 0.0
2017-Sep-05 04:28N 37°25' E 025°19'0 0.0
2017-Sep-05 04:01N 37°25' E 025°19'0 0.0
2017-Sep-05 03:31N 37°25' E 025°19'0 0.0
2017-Sep-05 02:58N 37°25' E 025°19'0 0.0
2017-Sep-05 02:28N 37°25' E 025°19'0 0.0
2017-Sep-05 02:01N 37°25' E 025°19'0 0.0
2017-Sep-05 01:28N 37°25' E 025°19'0 0.0
2017-Sep-05 01:01N 37°25' E 025°19'0 0.0
2017-Sep-05 00:28N 37°25' E 025°19'0 0.0
2017-Sep-04 23:55N 37°25' E 025°19'0 0.0
2017-Sep-04 23:28N 37°25' E 025°19'0 0.0
2017-Sep-04 23:01N 37°25' E 025°19'0 0.0
2017-Sep-04 22:28N 37°25' E 025°19'0 0.0
2017-Sep-04 22:01N 37°25' E 025°19'0 0.0
2017-Sep-04 21:28N 37°25' E 025°19'0 0.0
2017-Sep-04 20:58N 37°25' E 025°19'0 0.0
2017-Sep-04 20:28N 37°25' E 025°19'0 0.0
2017-Sep-04 20:01N 37°25' E 025°19'0 0.0
2017-Sep-04 19:31N 37°25' E 025°19'0 0.0
2017-Sep-04 18:58N 37°25' E 025°19'0 0.0
2017-Sep-04 18:31N 37°25' E 025°19'0 0.0
2017-Sep-04 17:58N 37°25' E 025°19'0 0.0
2017-Sep-04 17:28N 37°25' E 025°19'0 0.0
2017-Sep-04 16:58N 37°25' E 025°19'0 0.0
2017-Sep-04 16:31N 37°25' E 025°19'0 0.0
2017-Sep-04 16:01N 37°25' E 025°19'0 0.0
2017-Sep-04 15:28N 37°25' E 025°19'0 0.0
2017-Sep-04 15:01N 37°25' E 025°19'0 0.0
2017-Sep-04 14:31N 37°25' E 025°19'0 0.0
2017-Sep-04 14:01N 37°25' E 025°19'0 0.0
2017-Sep-04 13:28N 37°25' E 025°19'2 3.4
2017-Sep-04 13:01N 37°23' E 025°18'4 8.2
2017-Sep-04 12:30N 37°22' E 025°14'2 4.1
2017-Sep-04 11:59N 37°24' E 025°13'0 0.0
2017-Sep-04 11:29N 37°24' E 025°13'0 0.0
2017-Sep-04 10:59N 37°24' E 025°13'0 0.0
2017-Sep-04 10:29N 37°24' E 025°13'0 0.0
2017-Sep-04 09:59N 37°24' E 025°13'0 0.0
2017-Sep-04 09:26N 37°24' E 025°13'0 0.0
2017-Sep-04 08:59N 37°24' E 025°13'0 0.0
2017-Sep-04 08:30N 37°24' E 025°13'3 5.2
2017-Sep-04 08:00N 37°22' E 025°15'4 8.6
2017-Sep-04 07:30N 37°25' E 025°19'0 0.1
2017-Sep-04 07:00N 37°25' E 025°19'0 0.0
2017-Sep-04 06:30N 37°25' E 025°19'0 0.0
2017-Sep-04 06:00N 37°25' E 025°19'0 0.0
2017-Sep-04 05:30N 37°25' E 025°19'0 0.0
2017-Sep-04 05:00N 37°25' E 025°19'0 0.0
2017-Sep-04 04:30N 37°25' E 025°19'0 0.1
2017-Sep-04 03:57N 37°25' E 025°19'0 0.0
2017-Sep-04 03:30N 37°25' E 025°19'0 0.0
2017-Sep-04 03:00N 37°25' E 025°19'0 0.0
2017-Sep-04 02:30N 37°25' E 025°19'0 0.0
2017-Sep-04 02:00N 37°25' E 025°19'0 0.0
2017-Sep-04 01:30N 37°25' E 025°19'0 0.0
2017-Sep-04 01:00N 37°25' E 025°19'0 0.0
2017-Sep-04 00:30N 37°25' E 025°19'0 0.0
2017-Sep-03 23:57N 37°25' E 025°19'0 0.0
2017-Sep-03 23:27N 37°25' E 025°19'0 0.0
2017-Sep-03 23:00N 37°25' E 025°19'0 0.0
2017-Sep-03 22:30N 37°25' E 025°19'0 0.0
2017-Sep-03 22:00N 37°25' E 025°19'0 0.0
2017-Sep-03 21:30N 37°25' E 025°19'0 0.0
2017-Sep-03 20:57N 37°25' E 025°19'0 0.0
2017-Sep-03 20:30N 37°25' E 025°19'0 0.0
2017-Sep-03 20:00N 37°25' E 025°19'0 0.0
2017-Sep-03 19:30N 37°25' E 025°19'0 0.0
2017-Sep-03 19:00N 37°25' E 025°19'0 0.0
2017-Sep-03 18:30N 37°25' E 025°19'0 0.0
2017-Sep-03 18:00N 37°25' E 025°19'0 0.0
2017-Sep-03 17:30N 37°25' E 025°19'0 0.0
2017-Sep-03 17:00N 37°25' E 025°19'0 0.0
2017-Sep-03 16:30N 37°25' E 025°19'0 0.0
2017-Sep-03 16:00N 37°25' E 025°19'0 0.0
2017-Sep-03 15:30N 37°25' E 025°19'0 0.0
2017-Sep-03 15:00N 37°25' E 025°19'0 0.0
2017-Sep-03 14:00N 37°25' E 025°19'0 0.0
2017-Sep-03 13:30N 37°25' E 025°19'2 3.9
2017-Sep-03 13:00N 37°23' E 025°18'4 8.7
2017-Sep-03 12:30N 37°22' E 025°13'2 0.5
2017-Sep-03 08:37N 37°24' E 025°13'1 4.7
2017-Sep-03 08:28N 37°23' E 025°13'3 5.6
2017-Sep-03 08:00N 37°22' E 025°16'4 7.5
2017-Sep-03 07:30N 37°25' E 025°19'0 0.3
2017-Sep-03 06:58N 37°25' E 025°19'0 0.0
2017-Sep-03 06:28N 37°25' E 025°19'0 0.0
2017-Sep-03 05:58N 37°25' E 025°19'0 0.0
2017-Sep-03 05:28N 37°25' E 025°19'0 0.0
2017-Sep-03 04:55N 37°25' E 025°19'0 0.0
2017-Sep-03 04:28N 37°25' E 025°19'0 0.0
2017-Sep-03 03:58N 37°25' E 025°19'0 0.0
2017-Sep-03 03:28N 37°25' E 025°19'0 0.0
2017-Sep-03 02:58N 37°25' E 025°19'0 0.0
2017-Sep-03 02:28N 37°25' E 025°19'0 0.0
2017-Sep-03 01:58N 37°25' E 025°19'0 0.0
2017-Sep-03 01:28N 37°25' E 025°19'0 0.0
2017-Sep-03 00:37N 37°25' E 025°19'0 0.0
2017-Sep-03 00:28N 37°25' E 025°19'0 0.0
2017-Sep-02 23:58N 37°25' E 025°19'0 0.0
2017-Sep-02 23:28N 37°25' E 025°19'0 0.0
2017-Sep-02 22:49N 37°25' E 025°19'0 0.0
2017-Sep-02 22:28N 37°25' E 025°19'0 0.0
2017-Sep-02 21:58N 37°25' E 025°19'0 0.0
2017-Sep-02 21:28N 37°25' E 025°19'0 0.0
2017-Sep-02 20:58N 37°25' E 025°19'0 0.0
2017-Sep-02 20:28N 37°25' E 025°19'0 0.0
2017-Sep-02 19:58N 37°25' E 025°19'0 0.0
2017-Sep-02 19:28N 37°25' E 025°19'0 0.0
2017-Sep-02 18:58N 37°25' E 025°19'0 0.0
2017-Sep-02 18:28N 37°25' E 025°19'0 0.0
2017-Sep-02 17:58N 37°25' E 025°19'0 0.0
2017-Sep-02 17:28N 37°25' E 025°19'0 0.0
2017-Sep-02 16:58N 37°25' E 025°19'0 0.0
2017-Sep-02 16:22N 37°25' E 025°19'0 0.0
2017-Sep-02 15:58N 37°25' E 025°19'0 0.0
2017-Sep-02 15:28N 37°25' E 025°19'0 0.0
2017-Sep-02 14:58N 37°25' E 025°19'0 0.0
2017-Sep-02 14:28N 37°25' E 025°19'0 0.0
2017-Sep-02 13:58N 37°25' E 025°19'0 0.0
2017-Sep-02 13:28N 37°25' E 025°19'0 0.0
2017-Sep-02 12:58N 37°25' E 025°19'0 0.0
2017-Sep-02 12:28N 37°25' E 025°19'3 7.0
2017-Sep-02 12:00N 37°22' E 025°17'2 3.8
2017-Sep-02 11:28N 37°23' E 025°14'0 0.0
2017-Sep-02 10:58N 37°23' E 025°14'0 0.0
2017-Sep-02 10:28N 37°23' E 025°14'0 0.0
2017-Sep-02 09:58N 37°23' E 025°14'0 0.1
2017-Sep-02 09:28N 37°23' E 025°14'0 0.1
2017-Sep-02 08:58N 37°23' E 025°14'0 0.0
2017-Sep-02 08:28N 37°23' E 025°14'0 0.5
2017-Sep-02 08:00N 37°23' E 025°14'4 7.1
2017-Sep-02 07:30N 37°24' E 025°19'1 2.4
2017-Sep-02 06:58N 37°25' E 025°19'0 0.0
2017-Sep-02 06:28N 37°25' E 025°19'0 0.0
2017-Sep-02 05:58N 37°25' E 025°19'0 0.0
2017-Sep-02 05:28N 37°25' E 025°19'0 0.0
2017-Sep-02 04:58N 37°25' E 025°19'0 0.0
2017-Sep-02 04:28N 37°25' E 025°19'0 0.0
2017-Sep-02 03:58N 37°25' E 025°19'0 0.0
2017-Sep-02 03:28N 37°25' E 025°19'0 0.0
2017-Sep-02 02:58N 37°25' E 025°19'0 0.0
2017-Sep-02 02:28N 37°25' E 025°19'0 0.0
2017-Sep-02 01:58N 37°25' E 025°19'0 0.0
2017-Sep-02 01:25N 37°25' E 025°19'0 0.0
2017-Sep-02 00:58N 37°25' E 025°19'0 0.0
2017-Sep-02 00:28N 37°25' E 025°19'0 0.0
2017-Sep-01 23:58N 37°25' E 025°19'0 0.0
2017-Sep-01 23:28N 37°25' E 025°19'0 0.0
2017-Sep-01 22:55N 37°25' E 025°19'0 0.0
2017-Sep-01 22:28N 37°25' E 025°19'0 0.0
2017-Sep-01 21:58N 37°25' E 025°19'0 0.0
2017-Sep-01 21:28N 37°25' E 025°19'0 0.0
2017-Sep-01 20:58N 37°25' E 025°19'0 0.0
2017-Sep-01 20:25N 37°25' E 025°19'0 0.0
2017-Sep-01 19:58N 37°25' E 025°19'0 0.0
2017-Sep-01 19:28N 37°25' E 025°19'0 0.0
2017-Sep-01 18:55N 37°25' E 025°19'0 0.0
2017-Sep-01 18:28N 37°25' E 025°19'0 0.0
2017-Sep-01 17:58N 37°25' E 025°19'0 0.0
2017-Sep-01 17:28N 37°25' E 025°19'0 0.0
2017-Sep-01 16:58N 37°25' E 025°19'0 0.0
2017-Sep-01 16:28N 37°25' E 025°19'0 0.0
2017-Sep-01 15:58N 37°25' E 025°19'0 0.0
2017-Sep-01 15:28N 37°25' E 025°19'0 0.0
2017-Sep-01 14:55N 37°25' E 025°19'0 0.0
2017-Sep-01 14:28N 37°25' E 025°19'0 0.0
2017-Sep-01 13:58N 37°25' E 025°19'0 0.0
2017-Sep-01 13:28N 37°25' E 025°19'0 0.0
2017-Sep-01 12:58N 37°25' E 025°19'0 0.0
2017-Sep-01 12:25N 37°25' E 025°19'0 0.0
2017-Sep-01 11:58N 37°25' E 025°19'0 0.0
2017-Sep-01 11:28N 37°25' E 025°19'0 0.0
2017-Sep-01 10:55N 37°25' E 025°19'0 0.0
2017-Sep-01 10:28N 37°25' E 025°19'0 0.0
2017-Sep-01 09:58N 37°25' E 025°19'0 0.0
2017-Sep-01 09:28N 37°25' E 025°19'0 0.0
2017-Sep-01 08:58N 37°25' E 025°19'0 0.0
2017-Sep-01 08:25N 37°25' E 025°19'0 0.0
2017-Sep-01 07:58N 37°25' E 025°19'0 0.0
2017-Sep-01 07:22N 37°25' E 025°19'0 0.0
2017-Sep-01 06:58N 37°25' E 025°19'0 0.0
2017-Sep-01 06:28N 37°25' E 025°19'0 0.0
2017-Sep-01 05:58N 37°25' E 025°19'0 0.0
2017-Sep-01 05:28N 37°25' E 025°19'0 0.0
2017-Sep-01 04:58N 37°25' E 025°19'0 0.0
2017-Sep-01 04:28N 37°25' E 025°19'0 0.0
2017-Sep-01 03:58N 37°25' E 025°19'0 0.0
2017-Sep-01 03:28N 37°25' E 025°19'0 0.0
2017-Sep-01 02:55N 37°25' E 025°19'0 0.0
2017-Sep-01 02:25N 37°25' E 025°19'0 0.0
2017-Sep-01 01:58N 37°25' E 025°19'0 0.0
2017-Sep-01 01:28N 37°25' E 025°19'0 0.0
2017-Sep-01 00:58N 37°25' E 025°19'0 0.0
2017-Sep-01 00:28N 37°25' E 025°19'0 0.0
2017-Aug-31 23:58N 37°25' E 025°19'0 0.0
2017-Aug-31 23:28N 37°25' E 025°19'0 0.0
2017-Aug-31 22:55N 37°25' E 025°19'0 0.0
2017-Aug-31 22:28N 37°25' E 025°19'0 0.0
2017-Aug-31 21:58N 37°25' E 025°19'0 0.0
2017-Aug-31 21:28N 37°25' E 025°19'0 0.0
2017-Aug-31 20:58N 37°25' E 025°19'0 0.0
2017-Aug-31 20:28N 37°25' E 025°19'0 0.0
2017-Aug-31 19:58N 37°25' E 025°19'0 0.0
2017-Aug-31 19:28N 37°25' E 025°19'0 0.0
2017-Aug-31 18:58N 37°25' E 025°19'0 0.0
2017-Aug-31 18:28N 37°25' E 025°19'0 0.0
2017-Aug-31 17:58N 37°25' E 025°19'0 0.0
2017-Aug-31 17:28N 37°25' E 025°19'0 0.0
2017-Aug-31 16:55N 37°25' E 025°19'0 0.0
2017-Aug-31 16:25N 37°25' E 025°19'0 0.0
2017-Aug-31 15:58N 37°25' E 025°19'0 0.0
2017-Aug-31 15:28N 37°25' E 025°19'0 0.0
2017-Aug-31 14:55N 37°25' E 025°19'0 0.0
2017-Aug-31 14:28N 37°25' E 025°19'0 0.0
2017-Aug-31 13:58N 37°25' E 025°19'0 0.0
2017-Aug-31 13:25N 37°25' E 025°19'0 0.0
2017-Aug-31 12:58N 37°25' E 025°19'0 0.0
2017-Aug-31 12:25N 37°25' E 025°19'0 0.2
2017-Aug-31 11:59N 37°25' E 025°19'0 0.1
2017-Aug-31 11:29N 37°25' E 025°19'0 0.0
2017-Aug-31 10:59N 37°25' E 025°19'0 0.0
2017-Aug-31 10:29N 37°25' E 025°19'0 0.0
2017-Aug-31 09:59N 37°25' E 025°19'0 0.1
2017-Aug-31 09:31N 37°25' E 025°19'3 6.7
2017-Aug-31 09:01N 37°22' E 025°17'3 6.3
2017-Aug-31 08:31N 37°23' E 025°13'1 2.5
2017-Aug-31 08:00N 37°24' E 025°13'0 0.0
2017-Aug-31 07:27N 37°24' E 025°13'0 0.0
2017-Aug-31 07:00N 37°24' E 025°13'0 0.0
2017-Aug-31 06:24N 37°24' E 025°13'0 0.0
2017-Aug-31 06:00N 37°24' E 025°13'0 0.0
2017-Aug-31 05:27N 37°24' E 025°13'0 0.0
2017-Aug-31 04:57N 37°24' E 025°13'0 0.0
2017-Aug-31 04:30N 37°24' E 025°13'0 0.0
2017-Aug-31 04:00N 37°24' E 025°13'0 0.0
2017-Aug-31 03:30N 37°24' E 025°13'0 0.0
2017-Aug-31 03:00N 37°24' E 025°13'0 0.0
2017-Aug-31 02:30N 37°24' E 025°13'0 0.0
2017-Aug-31 02:00N 37°24' E 025°13'0 0.0
2017-Aug-31 01:30N 37°24' E 025°13'0 0.0
2017-Aug-31 01:00N 37°24' E 025°13'0 0.0
2017-Aug-31 00:30N 37°24' E 025°13'0 0.0
2017-Aug-31 00:00N 37°24' E 025°13'0 0.0
2017-Aug-30 23:30N 37°24' E 025°13'0 0.0
2017-Aug-30 23:00N 37°24' E 025°13'0 0.0
2017-Aug-30 22:27N 37°24' E 025°13'0 0.0
2017-Aug-30 22:00N 37°24' E 025°13'0 0.0
2017-Aug-30 21:30N 37°24' E 025°13'0 0.0
2017-Aug-30 21:00N 37°24' E 025°13'0 0.0
2017-Aug-30 20:30N 37°24' E 025°13'0 0.0
2017-Aug-30 20:00N 37°24' E 025°13'0 0.0
2017-Aug-30 19:27N 37°24' E 025°13'0 0.0
2017-Aug-30 19:00N 37°24' E 025°13'0 0.0
2017-Aug-30 18:30N 37°24' E 025°13'0 0.0
2017-Aug-30 18:00N 37°24' E 025°13'0 0.0
2017-Aug-30 17:30N 37°24' E 025°13'0 0.0
2017-Aug-30 17:00N 37°24' E 025°13'0 0.0
2017-Aug-30 16:27N 37°24' E 025°13'0 0.0
2017-Aug-30 15:57N 37°24' E 025°13'0 0.0
2017-Aug-30 15:30N 37°24' E 025°13'0 0.0
2017-Aug-30 15:00N 37°24' E 025°13'0 0.0
2017-Aug-30 14:30N 37°24' E 025°13'  

Dump ship's entire track history